AirNav   Everest Fuels
 
 335 users online  

94KY Woosley Airport
Rumsey, Kentucky, USA

GOING TO RUMSEY?


FAA INFORMATION EFFECTIVE 21 MAY 2020

Location

FAA Identifier: 94KY
Lat/Long: 37-30-02.0000N 087-19-46.0000W
37-30.033333N 087-19.766667W
37.5005556,-87.3294444
(estimated)
Elevation: 400 ft. / 122 m (estimated)
Variation: 01W (1990)
From city: 5 miles SW of RUMSEY, KY
Time zone: UTC -5 (UTC -6 during Standard Time)
Zip code: 42371

Airport Operations

Airport use: Private use, PERSONAL USE.
Activation date: 12/1992
Control tower: no
ARTCC: INDIANAPOLIS CENTER
FSS: LOUISVILLE FLIGHT SERVICE STATION
Attendance: UNATNDD
Segmented circle: no

Airport Communications

WX AWOS-3 at 2I0 (9 nm S): 126.475 (270-821-4554)
WX AWOS-3PT at OWB (16 nm NE): 119.025 (270-683-3228)
WX AWOS-3 at M21 (18 nm SE): 120.45 (270-338-7788)

Nearby radio navigation aids

VOR radial/distance  VOR name  Freq  Var
CCTr337/7.7CENTRAL CITY VORTAC109.8001W
OWBr212/16.5OWENSBORO VOR/DME108.6004W
PXVr138/32.9POCKET CITY VORTAC113.3003E

 
NDB name  Hdg/Dist  Freq  Var  ID
HIGUY228/11.334104WOW --- .--

Airport Services

Runway Information

Runway 15/33

Dimensions: 1600 x 65 ft. / 488 x 20 m
Surface: turf
RUNWAY 15  RUNWAY 33
Traffic pattern: leftleft

Airport Ownership and Management from official FAA records

Ownership: Privately-owned
Owner: KENNETH WOOSLEY
3029 PACK CHURCH RD
RUMSEY, KY 42371-9733
Phone 270-273-3369
Manager: KENNETH WOOSLEY
3029 PACK CHURCH RD
RUMSEY, KY 42371-9733
Phone 270-273-3369

Airport Operational Statistics

Aircraft based on the field: 1
Single engine airplanes: 1
    

Additional Remarks

OWNER DESIRES ARPT NOT BE CHARTED.
FOR CD CTC EVANSVILLE APCH AT 812-436-4690, WHEN APCH CLSD CTC INDIANAPOLIS ARTCC AT 317-247-2411.

Instrument Procedures

There are no published instrument procedures at 94KY.

Some nearby airports with instrument procedures:

2I0 - Madisonville Regional Airport (9 nm S)
KOWB - Owensboro-Daviess County Regional Airport (16 nm NE)
M21 - Muhlenberg County Airport (18 nm SE)
KJQD - Ohio County Airport (23 nm E)
KEHR - Henderson City-County Airport (25 nm NW)
 
Loc | Ops | Rwys | IFR | FBO | Links
Com | Nav | Svcs | Stats | Notes
Area around 94KY (Woosley Airport)
 
Road maps at: MapQuest Bing Google
 
Aerial photo
No photo
 
Sectional chart

 
Airport distance calculator
Flying to Woosley Airport? Find the distance to fly.

From to 94KY

Sunrise and sunset
Times for 31-May-2020
 Local
(UTC-5)
 Zulu
(UTC)
Morning civil twilight05:0010:00
Sunrise05:3110:31
Sunset20:0301:03
Evening civil twilight20:3401:34

Current date and time
Zulu (UTC)  31-May-2020 08:05:04
Local (UTC-5)  31-May-2020 03:05:04
 
METAR
K2I0 
9nm S 
310755Z AUTO 00000KT 10SM CLR 14/11 A3017 RMK AO2 T01410110
KOWB 
15nm NE 
310756Z AUTO 00000KT 10SM CLR 16/13 A3017 RMK AO2 SLP216 T01560128
KM21 
18nm SE 
310755Z AUTO 00000KT 10SM CLR 12/12 A3016 RMK AO2 T01200120
TAF
KOWB 
15nm NE 
310520Z 3106/0106 VRB04KT P6SM SKC FM311300 06008KT P6SM SKC
NOTAMs
Click for the latest NOTAMs
NOTAMs are issued by the DoD/FAA and will open in a separate window not controlled by AirNav.

 

 
 

Would you like to see your business listed on this page?

 If your business provides an interesting product or service to pilots, flight crews, aircraft, or users of the Woosley Airport, you should consider listing it here.  To start the listing process, click on the button below
 
Add a business
 

Other Pages about Woosley Airport

Update a link
 
Copyright © AirNav, LLC. All rights reserved. Privacy Policy  Contact